createdAt,value
2022-12-18T00:00:08.655Z,-6.00
2022-12-18T00:02:58.924Z,-6.00
2022-12-18T00:06:21.485Z,-6.00
2022-12-18T00:08:48.671Z,-6.00
2022-12-18T00:11:17.749Z,-6.00
2022-12-18T00:13:45.379Z,-6.00
2022-12-18T00:16:20.537Z,-6.00
2022-12-18T00:18:48.967Z,-6.00
2022-12-18T00:21:18.361Z,-6.00
2022-12-18T00:23:46.290Z,-6.00
2022-12-18T00:26:24.397Z,-6.00
2022-12-18T00:28:58.257Z,-5.90
2022-12-18T00:31:28.602Z,-6.00
2022-12-18T00:33:56.185Z,-6.00
2022-12-18T00:36:25.780Z,-5.90
2022-12-18T00:44:45.878Z,-6.00
2022-12-18T00:47:13.316Z,-6.10
2022-12-18T00:49:42.900Z,-6.00
2022-12-18T00:52:10.003Z,-6.10
2022-12-18T00:54:40.313Z,-6.10
2022-12-18T00:57:09.122Z,-6.20
2022-12-18T00:59:42.910Z,-6.20
2022-12-18T01:02:14.291Z,-6.30
2022-12-18T01:04:41.032Z,-6.30
2022-12-18T01:07:07.731Z,-6.30
2022-12-18T01:09:34.980Z,-6.20
2022-12-18T01:12:01.634Z,-6.30
2022-12-18T01:14:34.442Z,-6.20
2022-12-18T01:17:04.002Z,-6.20
2022-12-18T01:19:35.895Z,-6.20
2022-12-18T01:22:08.431Z,-6.20
2022-12-18T01:24:35.244Z,-6.10
2022-12-18T01:27:03.404Z,-6.20
2022-12-18T01:29:30.166Z,-6.20
2022-12-18T01:31:57.116Z,-6.10
2022-12-18T01:34:27.070Z,-6.10
2022-12-18T01:36:55.930Z,-6.10
2022-12-18T01:39:25.067Z,-6.10
2022-12-18T01:42:03.698Z,-6.10
2022-12-18T01:44:55.735Z,-6.10
2022-12-18T01:47:30.973Z,-6.20
2022-12-18T01:50:01.050Z,-6.20
2022-12-18T01:52:35.509Z,-6.20
2022-12-18T01:55:11.302Z,-6.20
2022-12-18T01:57:39.393Z,-6.20
2022-12-18T02:00:20.441Z,-6.20
2022-12-18T02:02:48.122Z,-6.20
2022-12-18T02:05:44.225Z,-6.20
2022-12-18T02:08:24.705Z,-6.20
2022-12-18T02:11:25.727Z,-6.20
2022-12-18T02:13:52.369Z,-6.30
2022-12-18T02:16:36.530Z,-6.30
2022-12-18T02:19:36.160Z,-6.30
2022-12-18T02:22:21.115Z,-6.30
2022-12-18T02:25:13.036Z,-6.30
2022-12-18T02:27:49.939Z,-6.40
2022-12-18T02:30:17.620Z,-6.40
2022-12-18T02:32:49.813Z,-6.40
2022-12-18T02:35:22.258Z,-6.50
2022-12-18T02:37:57.908Z,-6.40
2022-12-18T02:40:27.868Z,-6.40
2022-12-18T02:42:55.526Z,-6.40
2022-12-18T02:45:23.776Z,-6.40
2022-12-18T02:47:53.122Z,-6.30
2022-12-18T02:50:42.093Z,-6.30
2022-12-18T02:53:31.199Z,-6.30
2022-12-18T02:56:23.028Z,-6.30
2022-12-18T02:59:01.254Z,-6.40
2022-12-18T03:02:06.028Z,-6.30
2022-12-18T03:04:34.467Z,-6.30
2022-12-18T03:07:44.001Z,-6.30
2022-12-18T03:10:19.966Z,-6.30
2022-12-18T03:12:59.788Z,-6.30
2022-12-18T03:15:34.456Z,-6.30
2022-12-18T03:18:29.222Z,-6.30
2022-12-18T03:21:00.040Z,-6.30
2022-12-18T03:23:33.593Z,-6.30
2022-12-18T03:26:13.705Z,-6.30
2022-12-18T03:28:49.500Z,-6.30
2022-12-18T03:31:23.139Z,-6.30
2022-12-18T03:33:52.494Z,-6.30
2022-12-18T03:36:21.832Z,-6.30
2022-12-18T03:38:51.910Z,-6.40
2022-12-18T03:41:50.189Z,-6.40
2022-12-18T03:44:50.254Z,-6.40
2022-12-18T03:47:47.186Z,-6.40
2022-12-18T03:50:27.554Z,-6.40
2022-12-18T03:53:17.933Z,-6.40
2022-12-18T03:55:49.659Z,-6.50
2022-12-18T03:58:23.091Z,-6.50
2022-12-18T04:01:08.284Z,-6.50
2022-12-18T04:03:37.667Z,-6.50
2022-12-18T04:06:07.604Z,-6.50
2022-12-18T04:08:37.288Z,-6.50
2022-12-18T04:11:07.574Z,-6.50
2022-12-18T04:13:45.510Z,-6.50
2022-12-18T04:16:19.984Z,-6.50
2022-12-18T04:18:53.287Z,-6.50
2022-12-18T04:21:23.357Z,-6.50
2022-12-18T04:23:54.543Z,-6.50
2022-12-18T04:26:23.323Z,-6.50
2022-12-18T04:29:13.232Z,-6.50
2022-12-18T04:31:40.264Z,-6.50
2022-12-18T04:34:07.451Z,-6.50
2022-12-18T04:36:40.940Z,-6.50
2022-12-18T04:39:08.114Z,-6.50
2022-12-18T04:41:35.240Z,-6.50
2022-12-18T04:44:05.600Z,-6.50
2022-12-18T04:46:34.575Z,-6.50
2022-12-18T04:49:03.824Z,-6.50
2022-12-18T04:51:33.094Z,-6.50
2022-12-18T04:53:59.637Z,-6.50
2022-12-18T04:56:26.283Z,-6.60
2022-12-18T04:58:55.438Z,-6.60
2022-12-18T05:01:22.199Z,-6.60
2022-12-18T05:03:51.400Z,-6.60
2022-12-18T05:06:18.039Z,-6.60
2022-12-18T05:08:47.174Z,-6.70
2022-12-18T05:11:18.615Z,-6.70
2022-12-18T05:13:47.786Z,-6.70
2022-12-18T05:16:20.116Z,-6.70
2022-12-18T05:18:49.087Z,-6.80
2022-12-18T05:21:15.890Z,-6.80
2022-12-18T05:23:47.298Z,-6.80
2022-12-18T05:26:18.444Z,-6.70
2022-12-18T05:28:48.009Z,-6.70
2022-12-18T05:31:14.890Z,-6.70
2022-12-18T05:33:42.159Z,-6.70
2022-12-18T05:36:10.476Z,-6.70
2022-12-18T05:38:39.500Z,-6.70
2022-12-18T05:41:07.322Z,-6.70
2022-12-18T05:43:36.223Z,-6.80
2022-12-18T05:46:15.691Z,-6.70
2022-12-18T05:48:43.465Z,-6.80
2022-12-18T05:51:14.650Z,-6.70
2022-12-18T05:53:44.172Z,-6.70
2022-12-18T05:56:20.591Z,-6.70
2022-12-18T05:58:49.658Z,-6.80
2022-12-18T06:01:21.844Z,-6.80
2022-12-18T06:03:48.809Z,-6.90
2022-12-18T06:06:24.387Z,-6.90
2022-12-18T06:08:51.816Z,-6.90
2022-12-18T06:11:23.833Z,-6.90
2022-12-18T06:13:56.305Z,-6.90
2022-12-18T06:16:28.302Z,-7.00
2022-12-18T06:19:03.466Z,-7.00
2022-12-18T06:21:31.047Z,-7.00
2022-12-18T06:24:00.201Z,-7.00
2022-12-18T06:26:28.541Z,-7.10
2022-12-18T06:28:55.882Z,-7.10
2022-12-18T06:31:22.610Z,-7.10
2022-12-18T06:33:51.915Z,-7.10
2022-12-18T06:36:21.198Z,-7.10
2022-12-18T06:38:50.310Z,-7.10
2022-12-18T06:41:19.357Z,-7.10
2022-12-18T06:43:46.132Z,-7.20
2022-12-18T06:46:15.001Z,-7.20
2022-12-18T06:48:41.815Z,-7.20
2022-12-18T06:51:10.984Z,-7.10
2022-12-18T06:53:38.582Z,-7.10
2022-12-18T06:56:10.154Z,-7.10
2022-12-18T06:58:38.635Z,-7.20
2022-12-18T07:01:11.938Z,-7.20
2022-12-18T07:03:44.563Z,-7.30
2022-12-18T07:06:21.850Z,-7.30
2022-12-18T07:08:50.255Z,-7.30
2022-12-18T07:11:23.069Z,-7.30
2022-12-18T07:13:53.789Z,-7.30
2022-12-18T07:16:25.204Z,-7.40
2022-12-18T07:18:54.615Z,-7.50
2022-12-18T07:21:23.828Z,-7.60
2022-12-18T07:23:56.430Z,-7.60
2022-12-18T07:26:23.362Z,-7.70
2022-12-18T07:28:50.183Z,-7.70
2022-12-18T07:31:19.920Z,-7.70
2022-12-18T07:33:51.196Z,-7.70
2022-12-18T07:36:18.917Z,-7.60
2022-12-18T07:38:48.336Z,-7.60
2022-12-18T07:41:16.686Z,-7.50
2022-12-18T07:43:43.985Z,-7.40
2022-12-18T07:46:17.243Z,-7.40
2022-12-18T07:48:49.349Z,-7.50
2022-12-18T07:51:41.232Z,-7.40
2022-12-18T07:54:07.858Z,-7.70
2022-12-18T07:56:39.380Z,-7.90
2022-12-18T07:59:05.929Z,-7.90
2022-12-18T08:01:37.233Z,-8.00
2022-12-18T08:04:04.152Z,-8.10
2022-12-18T08:06:33.472Z,-8.10
2022-12-18T08:09:00.166Z,-8.20
2022-12-18T08:11:28.145Z,-8.20
2022-12-18T08:13:58.252Z,-8.10
2022-12-18T08:16:25.851Z,-8.00
2022-12-18T08:18:54.238Z,-8.00
2022-12-18T08:21:26.973Z,-8.00
2022-12-18T08:23:56.033Z,-7.90
2022-12-18T08:26:23.837Z,-7.80
2022-12-18T08:28:51.486Z,-7.60
2022-12-18T08:31:19.186Z,-7.50
2022-12-18T08:33:52.514Z,-7.40
2022-12-18T08:36:20.487Z,-7.30
2022-12-18T08:38:50.961Z,-7.20
2022-12-18T08:41:20.529Z,-7.20
2022-12-18T08:44:11.112Z,-7.10
2022-12-18T08:46:41.235Z,-6.90
2022-12-18T08:49:12.016Z,-6.70
2022-12-18T08:51:41.375Z,-6.50
2022-12-18T08:54:17.414Z,-6.20
2022-12-18T08:56:44.231Z,-5.90
2022-12-18T08:59:19.718Z,-5.70
2022-12-18T09:02:01.282Z,-5.50
2022-12-18T09:04:31.974Z,-5.10
2022-12-18T09:06:58.628Z,-4.90
2022-12-18T09:09:31.255Z,-4.70
2022-12-18T09:12:00.301Z,-4.50
2022-12-18T09:14:29.853Z,-4.60
2022-12-18T09:16:56.622Z,-4.70
2022-12-18T09:19:23.382Z,-4.80
2022-12-18T09:21:50.337Z,-4.70
2022-12-18T09:24:19.870Z,-4.60
2022-12-18T09:26:50.690Z,-4.40
2022-12-18T09:29:19.245Z,-4.10
2022-12-18T09:31:48.115Z,-4.00
2022-12-18T09:34:15.565Z,-4.00
2022-12-18T09:36:48.248Z,-4.10
2022-12-18T09:39:15.616Z,-4.00
2022-12-18T09:41:53.590Z,-3.70
2022-12-18T09:44:23.138Z,-3.50
2022-12-18T09:47:23.752Z,-3.70
2022-12-18T09:50:00.705Z,-3.90
2022-12-18T09:52:36.960Z,-3.90
2022-12-18T09:55:36.582Z,-3.80
2022-12-18T09:58:19.431Z,-3.80
2022-12-18T10:00:47.843Z,-3.50
2022-12-18T10:03:15.853Z,-3.10
2022-12-18T10:06:13.651Z,-2.60
2022-12-18T10:08:44.998Z,-2.10
2022-12-18T10:11:28.522Z,-1.60
2022-12-18T10:14:29.346Z,-1.40
2022-12-18T10:17:02.800Z,-1.20
2022-12-18T10:19:38.829Z,-1.00
2022-12-18T10:22:24.856Z,-0.70
2022-12-18T10:25:23.398Z,-0.80
2022-12-18T10:27:56.163Z,-0.50
2022-12-18T10:30:24.644Z,-0.50
2022-12-18T10:32:53.091Z,-0.40
2022-12-18T10:35:27.080Z,-0.20
2022-12-18T10:38:07.887Z,-0.10
2022-12-18T10:40:51.684Z,0.20
2022-12-18T10:43:29.466Z,0.40
2022-12-18T10:46:08.804Z,0.60
2022-12-18T10:48:56.465Z,0.70
2022-12-18T10:51:31.738Z,1.00
2022-12-18T10:54:02.450Z,1.20
2022-12-18T10:56:35.121Z,0.80
2022-12-18T10:59:08.501Z,0.60
2022-12-18T11:02:19.736Z,0.60
2022-12-18T11:04:55.378Z,0.90
2022-12-18T11:07:24.238Z,1.30
2022-12-18T11:10:02.914Z,1.20
2022-12-18T11:12:30.229Z,1.20
2022-12-18T11:15:00.367Z,0.80
2022-12-18T11:17:38.640Z,0.60
2022-12-18T11:20:18.445Z,0.40
2022-12-18T11:22:58.541Z,0.40
2022-12-18T11:25:33.509Z,0.70
2022-12-18T11:28:24.947Z,1.00
2022-12-18T11:31:23.392Z,1.30
2022-12-18T11:34:29.842Z,0.90
2022-12-18T11:37:03.695Z,0.90
2022-12-18T11:39:56.770Z,1.20
2022-12-18T11:42:35.931Z,1.30
2022-12-18T11:45:22.072Z,1.30
2022-12-18T11:48:16.436Z,1.20
2022-12-18T11:50:55.953Z,1.20
2022-12-18T11:53:24.401Z,1.30
2022-12-18T11:56:28.276Z,0.90
2022-12-18T11:59:16.911Z,0.90
2022-12-18T12:01:55.472Z,1.10
2022-12-18T12:04:47.313Z,1.00
2022-12-18T12:07:26.025Z,0.80
2022-12-18T12:10:23.371Z,0.70
2022-12-18T12:13:14.198Z,0.80
2022-12-18T12:15:46.925Z,0.90
2022-12-18T12:18:29.372Z,1.10
2022-12-18T12:21:18.944Z,1.00
2022-12-18T12:24:33.826Z,0.90
2022-12-18T12:27:15.101Z,0.80
2022-12-18T12:29:47.186Z,0.90
2022-12-18T12:32:32.421Z,1.00
2022-12-18T12:35:40.283Z,0.90
2022-12-18T12:38:18.138Z,0.80
2022-12-18T12:41:27.973Z,0.70
2022-12-18T12:44:00.348Z,0.70
2022-12-18T12:46:33.694Z,0.90
2022-12-18T12:49:04.467Z,0.90
2022-12-18T12:51:41.794Z,0.80
2022-12-18T12:54:26.650Z,0.70
2022-12-18T12:57:24.367Z,0.50
2022-12-18T13:03:24.605Z,0.60
2022-12-18T13:20:43.096Z,1.60
2022-12-18T13:23:24.622Z,1.70
2022-12-18T13:25:52.456Z,1.70
2022-12-18T13:28:25.201Z,1.80
2022-12-18T13:30:57.700Z,1.90
2022-12-18T13:34:23.888Z,1.90
2022-12-18T13:36:38.779Z,1.70
2022-12-18T13:39:34.828Z,1.70
2022-12-18T13:42:05.478Z,1.60
2022-12-18T13:47:39.335Z,1.50
2022-12-18T13:50:46.786Z,1.30
2022-12-18T13:53:22.206Z,1.20
2022-12-18T13:55:50.063Z,1.10
2022-12-18T13:58:16.739Z,1.00
2022-12-18T14:00:44.848Z,0.80
2022-12-18T14:03:22.891Z,0.50
2022-12-18T14:05:58.229Z,0.30
2022-12-18T14:08:28.723Z,0.20
2022-12-18T14:10:56.738Z,0.10
2022-12-18T14:13:37.849Z,0.00
2022-12-18T14:16:07.695Z,-0.20
2022-12-18T14:18:52.783Z,-0.20
2022-12-18T14:21:23.725Z,-0.20
2022-12-18T14:24:23.689Z,-0.30
2022-12-18T14:26:51.542Z,-0.40
2022-12-18T14:29:20.827Z,-0.40
2022-12-18T14:32:04.784Z,-0.40
2022-12-18T14:34:31.463Z,-0.50
2022-12-18T14:37:00.221Z,-0.50
2022-12-18T14:39:33.044Z,-0.40
2022-12-18T14:41:59.923Z,-0.50
2022-12-18T14:44:39.126Z,-0.50
2022-12-18T14:47:17.760Z,-0.50
2022-12-18T14:49:44.755Z,-0.60
2022-12-18T14:52:27.920Z,-0.60
2022-12-18T14:54:57.142Z,-0.60
2022-12-18T14:57:44.749Z,-0.60
2022-12-18T15:00:18.966Z,-0.60
2022-12-18T15:02:59.189Z,-0.60
2022-12-18T15:05:31.042Z,-0.70
2022-12-18T15:08:00.141Z,-0.60
2022-12-18T15:10:33.361Z,-0.70
2022-12-18T15:13:00.937Z,-0.80
2022-12-18T15:15:36.116Z,-0.80
2022-12-18T15:18:11.744Z,-0.90
2022-12-18T15:20:57.935Z,-0.90
2022-12-18T15:23:30.613Z,-0.90
2022-12-18T15:26:03.609Z,-1.10
2022-12-18T15:28:50.379Z,-1.10
2022-12-18T15:31:36.988Z,-1.20
2022-12-18T15:34:08.828Z,-1.30
2022-12-18T15:36:36.792Z,-1.30
2022-12-18T15:39:05.131Z,-1.40
2022-12-18T15:41:36.866Z,-1.40
2022-12-18T15:44:23.500Z,-1.50
2022-12-18T15:46:52.917Z,-1.50
2022-12-18T15:49:32.144Z,-1.50
2022-12-18T15:52:01.951Z,-1.50
2022-12-18T15:54:49.786Z,-1.50
2022-12-18T15:57:23.977Z,-1.60
2022-12-18T15:59:53.438Z,-1.50
2022-12-18T16:02:22.937Z,-1.50
2022-12-18T16:04:52.199Z,-1.50
2022-12-18T16:07:25.137Z,-1.50
2022-12-18T16:09:53.243Z,-1.60
2022-12-18T16:12:23.021Z,-1.60
2022-12-18T16:14:51.642Z,-1.60
2022-12-18T16:17:18.328Z,-1.50
2022-12-18T16:19:45.358Z,-1.50
2022-12-18T16:22:22.285Z,-1.50
2022-12-18T16:24:50.237Z,-1.50
2022-12-18T16:27:17.722Z,-1.50
2022-12-18T16:29:44.700Z,-1.50
2022-12-18T16:32:19.736Z,-1.50
2022-12-18T16:34:47.040Z,-1.50
2022-12-18T16:37:15.566Z,-1.50
2022-12-18T16:39:43.025Z,-1.40
2022-12-18T16:42:16.470Z,-1.40
2022-12-18T16:44:46.996Z,-1.40
2022-12-18T16:47:15.329Z,-1.40
2022-12-18T16:49:45.989Z,-1.40
2022-12-18T16:52:18.717Z,-1.40
2022-12-18T16:54:45.339Z,-1.40
2022-12-18T16:57:17.874Z,-1.40
2022-12-18T16:59:53.188Z,-1.40
2022-12-18T17:02:23.846Z,-1.40
2022-12-18T17:04:54.466Z,-1.40
2022-12-18T17:07:23.132Z,-1.40
2022-12-18T17:09:50.480Z,-1.40
2022-12-18T17:12:17.720Z,-1.40
2022-12-18T17:14:46.596Z,-1.40
2022-12-18T17:17:23.109Z,-1.50
2022-12-18T17:19:51.507Z,-1.50
2022-12-18T17:22:20.020Z,-1.50
2022-12-18T17:24:47.177Z,-1.50
2022-12-18T17:27:15.315Z,-1.50
2022-12-18T17:29:48.444Z,-1.50
2022-12-18T17:32:17.019Z,-1.50
2022-12-18T17:34:46.031Z,-1.50
2022-12-18T17:37:12.973Z,-1.50
2022-12-18T17:39:39.828Z,-1.50
2022-12-18T17:42:06.760Z,-1.60
2022-12-18T17:44:37.910Z,-1.60
2022-12-18T17:47:07.175Z,-1.60
2022-12-18T17:49:34.043Z,-1.60
2022-12-18T17:52:02.634Z,-1.60
2022-12-18T17:54:32.529Z,-1.60
2022-12-18T17:57:02.216Z,-1.60
2022-12-18T17:59:36.587Z,-1.60
2022-12-18T18:02:03.525Z,-1.60
2022-12-18T18:04:30.321Z,-1.60
2022-12-18T18:06:59.935Z,-1.60
2022-12-18T18:09:26.963Z,-1.60
2022-12-18T18:12:12.230Z,-1.60
2022-12-18T18:14:40.299Z,-1.60
2022-12-18T18:17:09.442Z,-1.60
2022-12-18T18:19:41.541Z,-1.60
2022-12-18T18:22:09.855Z,-1.60
2022-12-18T18:24:39.564Z,-1.60
2022-12-18T18:27:06.349Z,-1.60
2022-12-18T18:29:35.811Z,-1.60
2022-12-18T18:32:07.680Z,-1.60
2022-12-18T18:34:36.674Z,-1.50
2022-12-18T18:37:08.649Z,-1.60
2022-12-18T18:39:38.151Z,-1.60
2022-12-18T18:42:07.497Z,-1.60
2022-12-18T18:44:39.110Z,-1.70
2022-12-18T18:47:08.568Z,-1.70
2022-12-18T18:49:39.144Z,-1.70
2022-12-18T18:52:06.782Z,-1.70
2022-12-18T18:54:33.498Z,-1.70
2022-12-18T18:59:48.396Z,-1.80
2022-12-18T19:02:19.453Z,-1.80
2022-12-18T19:04:47.132Z,-1.80
2022-12-18T19:07:29.728Z,-1.80
2022-12-18T19:10:00.029Z,-1.80
2022-12-18T19:12:51.211Z,-1.80
2022-12-18T19:15:21.200Z,-1.80
2022-12-18T19:17:52.145Z,-1.80
2022-12-18T19:20:19.222Z,-1.90
2022-12-18T19:22:56.004Z,-1.90
2022-12-18T19:25:30.677Z,-1.90
2022-12-18T19:28:12.059Z,-2.00
2022-12-18T19:31:10.539Z,-1.90
2022-12-18T19:33:43.602Z,-1.90
2022-12-18T19:36:11.317Z,-1.90
2022-12-18T19:38:39.179Z,-1.90
2022-12-18T19:41:09.763Z,-1.90
2022-12-18T19:43:37.865Z,-1.90
2022-12-18T19:46:10.215Z,-1.90
2022-12-18T19:48:37.465Z,-1.90
2022-12-18T19:51:10.620Z,-1.90
2022-12-18T19:53:39.638Z,-1.90
2022-12-18T19:56:07.579Z,-1.90
2022-12-18T19:58:34.741Z,-1.90
2022-12-18T20:01:06.248Z,-2.00
2022-12-18T20:03:37.634Z,-2.00
2022-12-18T20:06:24.189Z,-2.00
2022-12-18T20:09:00.825Z,-2.00
2022-12-18T20:11:31.248Z,-2.00
2022-12-18T20:14:00.440Z,-2.10
2022-12-18T20:16:29.689Z,-2.10
2022-12-18T20:18:59.840Z,-2.10
2022-12-18T20:21:28.157Z,-2.30
2022-12-18T20:23:59.147Z,-2.40
2022-12-18T20:26:26.531Z,-2.30
2022-12-18T20:28:56.330Z,-2.30
2022-12-18T20:31:26.181Z,-2.30
2022-12-18T20:34:01.771Z,-2.30
2022-12-18T20:36:35.116Z,-2.30
2022-12-18T20:39:06.479Z,-2.20
2022-12-18T20:41:41.612Z,-2.20
2022-12-18T20:44:23.271Z,-2.20
2022-12-18T20:46:53.075Z,-2.10
2022-12-18T20:49:22.071Z,-2.10
2022-12-18T20:51:55.968Z,-2.10
2022-12-18T20:54:24.918Z,-2.10
2022-12-18T20:56:51.592Z,-2.20
2022-12-18T20:59:19.073Z,-2.20
2022-12-18T21:01:48.275Z,-2.20
2022-12-18T21:04:19.284Z,-2.20
2022-12-18T21:06:53.085Z,-2.20
2022-12-18T21:09:27.147Z,-2.20
2022-12-18T21:12:13.924Z,-2.20
2022-12-18T21:14:46.356Z,-2.20
2022-12-18T21:17:14.324Z,-2.20
2022-12-18T21:19:41.085Z,-2.20
2022-12-18T21:22:09.091Z,-2.10
2022-12-18T21:24:35.706Z,-2.10
2022-12-18T21:27:02.842Z,-2.10
2022-12-18T21:29:32.652Z,-2.10
2022-12-18T21:31:59.884Z,-2.10
2022-12-18T21:34:31.369Z,-2.10
2022-12-18T21:37:01.171Z,-2.10
2022-12-18T21:39:34.071Z,-2.10
2022-12-18T21:42:19.712Z,-2.00
2022-12-18T21:44:48.940Z,-2.00
2022-12-18T21:47:22.002Z,-2.00
2022-12-18T21:49:53.095Z,-2.00
2022-12-18T21:52:31.694Z,-2.10
2022-12-18T21:55:08.352Z,-2.10
2022-12-18T21:57:38.771Z,-2.10
2022-12-18T22:00:12.516Z,-2.10
2022-12-18T22:02:48.759Z,-2.00
2022-12-18T22:05:35.125Z,-2.00
2022-12-18T22:08:06.968Z,-1.90
2022-12-18T22:10:34.295Z,-1.90
2022-12-18T22:13:01.037Z,-1.90
2022-12-18T22:15:30.351Z,-2.00
2022-12-18T22:18:00.529Z,-2.00
2022-12-18T22:20:30.304Z,-2.00
2022-12-18T22:23:05.894Z,-2.00
2022-12-18T22:25:35.241Z,-1.90
2022-12-18T22:28:25.252Z,-1.90
2022-12-18T22:30:57.753Z,-1.80
2022-12-18T22:33:27.689Z,-1.80
2022-12-18T22:35:54.670Z,-1.80
2022-12-18T22:38:23.616Z,-1.70
2022-12-18T22:40:50.226Z,-1.70
2022-12-18T22:43:18.959Z,-1.70
2022-12-18T22:45:48.358Z,-1.60
2022-12-18T22:48:18.119Z,-1.60
2022-12-18T22:50:46.747Z,-1.60
2022-12-18T22:53:13.393Z,-1.60
2022-12-18T22:55:43.628Z,-1.60
2022-12-18T22:58:10.345Z,-1.60
2022-12-18T23:00:37.006Z,-1.60
2022-12-18T23:03:04.079Z,-1.60
2022-12-18T23:05:36.447Z,-1.60
2022-12-18T23:08:05.588Z,-1.60
2022-12-18T23:10:36.017Z,-1.60
2022-12-18T23:13:02.656Z,-1.60
2022-12-18T23:15:40.125Z,-1.50
2022-12-18T23:18:06.942Z,-1.50
2022-12-18T23:20:37.511Z,-1.50
2022-12-18T23:23:07.928Z,-1.50
2022-12-18T23:25:36.876Z,-1.50
2022-12-18T23:28:03.986Z,-1.50
2022-12-18T23:30:33.895Z,-1.50
2022-12-18T23:33:00.623Z,-1.50
2022-12-18T23:35:28.795Z,-1.50
2022-12-18T23:37:59.513Z,-1.50
2022-12-18T23:40:27.307Z,-1.50
2022-12-18T23:42:53.869Z,-1.50
2022-12-18T23:45:22.610Z,-1.50
2022-12-18T23:47:50.999Z,-1.40
2022-12-18T23:50:27.694Z,-1.40
2022-12-18T23:53:03.277Z,-1.40
2022-12-18T23:55:37.755Z,-1.40
2022-12-18T23:58:04.409Z,-1.40
